Impacts TAF Board
For situational awareness. Not to be used for flight planning purposes.
IDs:

KMIA - Miami Intl, FL, US

Issued at 0303 UTC 20 Mar 2019
Updated at 0325 UTC 20 Mar 2019
Potential Impact None Slight Moderate High
Time<<21/04Z 21/05Z 21/06Z 21/07Z 21/08Z 21/09Z 21/10Z 21/11Z 21/12Z 21/13Z 21/14Z 21/15Z 21/16Z
Type PRVL PRVL
VIS >6 >6
CIG 35 35
Cover BKN BKN
FltCat VFR VFR
WX VCSH VCSH
WDir 50 50
WSpd 9 9
WGst -- --
Raw TAF
KMIA 200303Z 2003/2106 35007KT 4SM RA BR SCT008 BKN015 OVC030
  TEMPO 2003/2004 1SM +SHRA BKN006
  FM200900 35005KT P6SM VCSH SCT015 BKN030 OVC050
  FM201600 05009KT P6SM VCSH BKN035 BKN050


METAR Board
Radar Display
Forecast Discussion
For situational awareness. Not to be used for flight planning purposes.